sensor_id;sensor_type;location;lat;lon;timestamp;pressure;altitude;pressure_sealevel;temperature;humidity
9839;BME280;4958;48.150;11.506;2023-04-09T00:02:13;96205.66;;;8.04;81.38
9839;BME280;4958;48.150;11.506;2023-04-09T00:04:40;96212.63;;;8.12;80.45
9839;BME280;4958;48.150;11.506;2023-04-09T00:07:06;96201.13;;;8.16;80.38
9839;BME280;4958;48.150;11.506;2023-04-09T00:09:36;96195.56;;;8.20;80.06
9839;BME280;4958;48.150;11.506;2023-04-09T00:12:02;96202.97;;;8.23;79.71
9839;BME280;4958;48.150;11.506;2023-04-09T00:14:32;96193.81;;;8.21;80.03
9839;BME280;4958;48.150;11.506;2023-04-09T00:16:59;96195.94;;;8.08;80.50
9839;BME280;4958;48.150;11.506;2023-04-09T00:19:26;96193.13;;;7.83;81.91
9839;BME280;4958;48.150;11.506;2023-04-09T00:21:54;96199.19;;;7.82;82.07
9839;BME280;4958;48.150;11.506;2023-04-09T00:24:21;96184.94;;;7.70;82.76
9839;BME280;4958;48.150;11.506;2023-04-09T00:26:47;96187.09;;;7.75;82.59
9839;BME280;4958;48.150;11.506;2023-04-09T00:29:14;96195.72;;;7.74;82.92
9839;BME280;4958;48.150;11.506;2023-04-09T00:31:40;96192.72;;;7.78;82.62
9839;BME280;4958;48.150;11.506;2023-04-09T00:34:11;96184.25;;;7.78;82.69
9839;BME280;4958;48.150;11.506;2023-04-09T00:36:38;96188.19;;;7.90;82.09
9839;BME280;4958;48.150;11.506;2023-04-09T00:39:05;96189.09;;;7.98;81.87
9839;BME280;4958;48.150;11.506;2023-04-09T00:41:34;96184.25;;;7.95;81.62
9839;BME280;4958;48.150;11.506;2023-04-09T00:44:03;96190.84;;;7.98;81.39
9839;BME280;4958;48.150;11.506;2023-04-09T00:46:30;96190.44;;;8.03;81.11
9839;BME280;4958;48.150;11.506;2023-04-09T00:48:56;96193.19;;;8.09;81.12
9839;BME280;4958;48.150;11.506;2023-04-09T00:51:24;96189.09;;;8.16;80.54
9839;BME280;4958;48.150;11.506;2023-04-09T00:53:52;96182.88;;;8.19;80.07
9839;BME280;4958;48.150;11.506;2023-04-09T00:56:25;96187.19;;;8.18;79.88
9839;BME280;4958;48.150;11.506;2023-04-09T00:58:52;96186.09;;;8.21;80.06
9839;BME280;4958;48.150;11.506;2023-04-09T01:01:19;96187.72;;;8.22;79.60
9839;BME280;4958;48.150;11.506;2023-04-09T01:03:45;96187.50;;;8.15;79.67
9839;BME280;4958;48.150;11.506;2023-04-09T01:06:26;96183.47;;;8.13;79.26
9839;BME280;4958;48.150;11.506;2023-04-09T01:09:12;96186.03;;;8.13;79.86
9839;BME280;4958;48.150;11.506;2023-04-09T01:11:45;96182.66;;;8.12;79.94
9839;BME280;4958;48.150;11.506;2023-04-09T01:14:20;96189.09;;;8.16;79.66
9839;BME280;4958;48.150;11.506;2023-04-09T01:16:54;96182.38;;;8.15;78.18
9839;BME280;4958;48.150;11.506;2023-04-09T01:19:37;96175.91;;;8.11;77.98
9839;BME280;4958;48.150;11.506;2023-04-09T01:22:23;96176.72;;;8.12;78.07
9839;BME280;4958;48.150;11.506;2023-04-09T01:25:01;96177.00;;;8.09;78.08
9839;BME280;4958;48.150;11.506;2023-04-09T01:27:35;96177.53;;;8.12;77.62
9839;BME280;4958;48.150;11.506;2023-04-09T01:30:05;96173.44;;;8.02;77.18
9839;BME280;4958;48.150;11.506;2023-04-09T01:32:34;96183.25;;;8.06;77.34
9839;BME280;4958;48.150;11.506;2023-04-09T01:35:05;96177.38;;;7.96;76.95
9839;BME280;4958;48.150;11.506;2023-04-09T01:37:32;96183.16;;;7.98;76.86
9839;BME280;4958;48.150;11.506;2023-04-09T01:39:59;96183.03;;;8.00;77.07
9839;BME280;4958;48.150;11.506;2023-04-09T01:42:27;96187.78;;;7.94;76.77
9839;BME280;4958;48.150;11.506;2023-04-09T01:44:57;96184.91;;;7.97;77.36
9839;BME280;4958;48.150;11.506;2023-04-09T01:47:29;96186.53;;;7.98;77.17
9839;BME280;4958;48.150;11.506;2023-04-09T01:49:55;96189.09;;;7.98;77.25
9839;BME280;4958;48.150;11.506;2023-04-09T01:52:22;96191.53;;;8.00;77.16
9839;BME280;4958;48.150;11.506;2023-04-09T01:54:49;96190.94;;;8.06;77.07
9839;BME280;4958;48.150;11.506;2023-04-09T01:57:17;96189.47;;;8.04;76.60
9839;BME280;4958;48.150;11.506;2023-04-09T01:59:47;96180.69;;;8.06;76.22
9839;BME280;4958;48.150;11.506;2023-04-09T02:02:18;96190.00;;;8.07;75.98
9839;BME280;4958;48.150;11.506;2023-04-09T02:04:48;96191.44;;;8.10;76.23
9839;BME280;4958;48.150;11.506;2023-04-09T02:07:21;96189.00;;;8.08;76.61
9839;BME280;4958;48.150;11.506;2023-04-09T02:09:52;96188.25;;;8.08;76.85
9839;BME280;4958;48.150;11.506;2023-04-09T02:12:20;96186.03;;;8.13;76.66
9839;BME280;4958;48.150;11.506;2023-04-09T02:14:51;96186.44;;;8.08;76.86
9839;BME280;4958;48.150;11.506;2023-04-09T02:17:18;96185.34;;;8.11;77.07
9839;BME280;4958;48.150;11.506;2023-04-09T02:19:49;96182.50;;;8.14;76.67
9839;BME280;4958;48.150;11.506;2023-04-09T02:22:17;96187.13;;;8.10;76.74
9839;BME280;4958;48.150;11.506;2023-04-09T02:24:46;96180.38;;;8.09;76.87
9839;BME280;4958;48.150;11.506;2023-04-09T02:27:13;96177.66;;;8.11;76.79
9839;BME280;4958;48.150;11.506;2023-04-09T02:29:40;96180.88;;;8.13;77.01
9839;BME280;4958;48.150;11.506;2023-04-09T02:32:07;96177.53;;;8.12;77.27
9839;BME280;4958;48.150;11.506;2023-04-09T02:34:36;96182.66;;;8.12;76.53
9839;BME280;4958;48.150;11.506;2023-04-09T02:37:04;96182.78;;;8.11;77.21
9839;BME280;4958;48.150;11.506;2023-04-09T02:39:30;96185.06;;;8.14;76.72
9839;BME280;4958;48.150;11.506;2023-04-09T02:41:59;96176.44;;;8.15;77.17
9839;BME280;4958;48.150;11.506;2023-04-09T02:44:28;96186.03;;;8.13;77.28
9839;BME280;4958;48.150;11.506;2023-04-09T02:46:54;96179.41;;;8.10;76.83
9839;BME280;4958;48.150;11.506;2023-04-09T02:49:20;96177.97;;;8.08;77.06
9839;BME280;4958;48.150;11.506;2023-04-09T02:51:47;96180.38;;;8.09;77.11
9839;BME280;4958;48.150;11.506;2023-04-09T02:54:19;96174.44;;;8.09;76.81
9839;BME280;4958;48.150;11.506;2023-04-09T02:56:48;96167.63;;;8.00;76.90
9839;BME280;4958;48.150;11.506;2023-04-09T02:59:14;96163.03;;;7.85;77.89
9839;BME280;4958;48.150;11.506;2023-04-09T03:01:43;96169.91;;;7.85;77.75
9839;BME280;4958;48.150;11.506;2023-04-09T03:04:12;96166.53;;;7.84;78.37
9839;BME280;4958;48.150;11.506;2023-04-09T03:06:41;96164.91;;;7.83;78.67
9839;BME280;4958;48.150;11.506;2023-04-09T03:09:09;96159.19;;;7.89;77.71
9839;BME280;4958;48.150;11.506;2023-04-09T03:11:36;96159.84;;;7.91;77.80
9839;BME280;4958;48.150;11.506;2023-04-09T03:14:03;96153.25;;;7.89;77.63
9839;BME280;4958;48.150;11.506;2023-04-09T03:16:29;96159.72;;;7.93;77.50
9839;BME280;4958;48.150;11.506;2023-04-09T03:18:56;96155.25;;;7.95;77.20
9839;BME280;4958;48.150;11.506;2023-04-09T03:21:22;96157.38;;;8.00;77.07
9839;BME280;4958;48.150;11.506;2023-04-09T03:23:48;96153.19;;;7.98;76.78
9839;BME280;4958;48.150;11.506;2023-04-09T03:26:15;96157.38;;;8.00;76.99
9839;BME280;4958;48.150;11.506;2023-04-09T03:28:46;96154.81;;;8.00;76.70
9839;BME280;4958;48.150;11.506;2023-04-09T03:31:12;96154.28;;;7.96;76.98
9839;BME280;4958;48.150;11.506;2023-04-09T03:33:39;96157.81;;;7.95;76.97
9839;BME280;4958;48.150;11.506;2023-04-09T03:36:05;96154.88;;;7.90;77.02
9839;BME280;4958;48.150;11.506;2023-04-09T03:38:32;96155.53;;;7.92;77.00
9839;BME280;4958;48.150;11.506;2023-04-09T03:40:58;96164.16;;;7.91;76.69
9839;BME280;4958;48.150;11.506;2023-04-09T03:43:24;96159.78;;;7.83;77.21
9839;BME280;4958;48.150;11.506;2023-04-09T03:45:52;96165.72;;;7.84;77.42
9839;BME280;4958;48.150;11.506;2023-04-09T03:48:19;96173.94;;;7.87;77.83
9839;BME280;4958;48.150;11.506;2023-04-09T03:50:45;96176.50;;;7.87;77.51
9839;BME280;4958;48.150;11.506;2023-04-09T03:53:12;96172.81;;;7.90;77.31
9839;BME280;4958;48.150;11.506;2023-04-09T03:55:38;96177.72;;;7.83;77.61
9839;BME280;4958;48.150;11.506;2023-04-09T03:58:04;96175.75;;;7.77;77.61
9839;BME280;4958;48.150;11.506;2023-04-09T04:00:31;96180.84;;;7.59;78.22
9839;BME280;4958;48.150;11.506;2023-04-09T04:02:59;96173.97;;;7.60;78.21
9839;BME280;4958;48.150;11.506;2023-04-09T04:05:25;96180.97;;;7.58;78.16
9839;BME280;4958;48.150;11.506;2023-04-09T04:07:54;96179.44;;;7.47;78.66
9839;BME280;4958;48.150;11.506;2023-04-09T04:10:21;96188.59;;;7.50;78.73
9839;BME280;4958;48.150;11.506;2023-04-09T04:12:47;96188.41;;;7.51;78.61
9839;BME280;4958;48.150;11.506;2023-04-09T04:15:13;96194.81;;;7.47;78.69
9839;BME280;4958;48.150;11.506;2023-04-09T04:17:40;96197.63;;;7.44;78.77
9839;BME280;4958;48.150;11.506;2023-04-09T04:20:09;96190.75;;;7.45;78.78
9839;BME280;4958;48.150;11.506;2023-04-09T04:22:35;96197.78;;;7.43;78.71
9839;BME280;4958;48.150;11.506;2023-04-09T04:25:02;96198.34;;;7.37;78.26
9839;BME280;4958;48.150;11.506;2023-04-09T04:27:28;96199.41;;;7.34;78.48
9839;BME280;4958;48.150;11.506;2023-04-09T04:29:58;96200.63;;;7.40;78.12
9839;BME280;4958;48.150;11.506;2023-04-09T04:32:28;96204.94;;;7.39;77.99
9839;BME280;4958;48.150;11.506;2023-04-09T04:34:57;96194.31;;;7.34;78.11
9839;BME280;4958;48.150;11.506;2023-04-09T04:37:27;96198.75;;;7.32;78.20
9839;BME280;4958;48.150;11.506;2023-04-09T04:39:55;96195.91;;;7.35;78.06
9839;BME280;4958;48.150;11.506;2023-04-09T04:42:21;96194.75;;;7.30;78.29
9839;BME280;4958;48.150;11.506;2023-04-09T04:44:48;96195.69;;;7.28;78.64
9839;BME280;4958;48.150;11.506;2023-04-09T04:47:17;96197.94;;;7.32;78.32
9839;BME280;4958;48.150;11.506;2023-04-09T04:49:44;96203.59;;;7.35;78.35
9839;BME280;4958;48.150;11.506;2023-04-09T04:52:11;96195.09;;;7.35;78.33
9839;BME280;4958;48.150;11.506;2023-04-09T04:54:41;96193.34;;;7.35;78.40
9839;BME280;4958;48.150;11.506;2023-04-09T04:57:08;96191.19;;;7.40;77.62
9839;BME280;4958;48.150;11.506;2023-04-09T04:59:35;96183.06;;;7.45;77.88
9839;BME280;4958;48.150;11.506;2023-04-09T05:02:02;96183.34;;;7.42;77.72
9839;BME280;4958;48.150;11.506;2023-04-09T05:04:29;96184.16;;;7.42;77.83
9839;BME280;4958;48.150;11.506;2023-04-09T05:06:55;96185.38;;;7.38;78.63
9839;BME280;4958;48.150;11.506;2023-04-09T05:09:22;96187.53;;;7.43;78.29
9839;BME280;4958;48.150;11.506;2023-04-09T05:11:50;96195.59;;;7.48;78.53
9839;BME280;4958;48.150;11.506;2023-04-09T05:14:16;96198.16;;;7.48;78.14
9839;BME280;4958;48.150;11.506;2023-04-09T05:16:45;96207.09;;;7.34;79.30
9839;BME280;4958;48.150;11.506;2023-04-09T05:19:11;96209.31;;;7.29;79.49
9839;BME280;4958;48.150;11.506;2023-04-09T05:21:38;96219.44;;;7.21;79.84
9839;BME280;4958;48.150;11.506;2023-04-09T05:24:04;96223.34;;;7.15;80.30
9839;BME280;4958;48.150;11.506;2023-04-09T05:26:31;96225.63;;;7.18;80.17
9839;BME280;4958;48.150;11.506;2023-04-09T05:28:59;96216.47;;;7.25;79.67
9839;BME280;4958;48.150;11.506;2023-04-09T05:31:25;96219.44;;;7.21;80.35
9839;BME280;4958;48.150;11.506;2023-04-09T05:33:52;96221.06;;;7.12;80.64
9839;BME280;4958;48.150;11.506;2023-04-09T05:36:18;96227.00;;;7.13;80.79
9839;BME280;4958;48.150;11.506;2023-04-09T05:38:45;96225.91;;;7.25;80.36
9839;BME280;4958;48.150;11.506;2023-04-09T05:41:12;96231.50;;;7.38;79.81
9839;BME280;4958;48.150;11.506;2023-04-09T05:43:39;96236.63;;;7.38;79.80
9839;BME280;4958;48.150;11.506;2023-04-09T05:46:08;96239.84;;;7.50;79.51
9839;BME280;4958;48.150;11.506;2023-04-09T05:48:34;96235.66;;;7.49;79.61
9839;BME280;4958;48.150;11.506;2023-04-09T05:51:01;96230.22;;;7.52;79.47
9839;BME280;4958;48.150;11.506;2023-04-09T05:53:28;96225.28;;;7.41;79.54
9839;BME280;4958;48.150;11.506;2023-04-09T05:55:55;96227.72;;;7.42;79.59
9839;BME280;4958;48.150;11.506;2023-04-09T05:58:21;96225.44;;;7.39;80.14
9839;BME280;4958;48.150;11.506;2023-04-09T06:00:48;96224.88;;;7.45;80.12
9839;BME280;4958;48.150;11.506;2023-04-09T06:03:17;96220.78;;;7.52;79.39
9839;BME280;4958;48.150;11.506;2023-04-09T06:05:43;96218.75;;;7.56;79.32
9839;BME280;4958;48.150;11.506;2023-04-09T06:08:10;96223.69;;;7.67;78.92
9839;BME280;4958;48.150;11.506;2023-04-09T06:10:38;96225.53;;;7.75;78.12
9839;BME280;4958;48.150;11.506;2023-04-09T06:13:04;96221.31;;;7.83;77.50
9839;BME280;4958;48.150;11.506;2023-04-09T06:15:31;96218.59;;;7.85;77.32
9839;BME280;4958;48.150;11.506;2023-04-09T06:17:57;96223.28;;;7.89;77.42
9839;BME280;4958;48.150;11.506;2023-04-09T06:20:25;96217.31;;;7.98;77.26
9839;BME280;4958;48.150;11.506;2023-04-09T06:22:52;96219.16;;;8.06;76.96
9839;BME280;4958;48.150;11.506;2023-04-09T06:25:18;96240.47;;;8.07;76.72
9839;BME280;4958;48.150;11.506;2023-04-09T06:27:45;96238.66;;;7.89;76.12
9839;BME280;4958;48.150;11.506;2023-04-09T06:30:12;96247.22;;;7.80;77.53
9839;BME280;4958;48.150;11.506;2023-04-09T06:32:38;96240.03;;;7.66;77.25
9839;BME280;4958;48.150;11.506;2023-04-09T06:35:06;96245.28;;;7.65;76.77
9839;BME280;4958;48.150;11.506;2023-04-09T06:37:34;96250.34;;;7.74;76.80
9839;BME280;4958;48.150;11.506;2023-04-09T06:40:00;96239.69;;;7.79;76.18
9839;BME280;4958;48.150;11.506;2023-04-09T06:42:27;96246.56;;;7.78;75.57
9839;BME280;4958;48.150;11.506;2023-04-09T06:44:53;96244.69;;;7.98;75.17
9839;BME280;4958;48.150;11.506;2023-04-09T06:47:20;96244.81;;;8.24;74.25
9839;BME280;4958;48.150;11.506;2023-04-09T06:49:46;96249.34;;;8.30;73.05
9839;BME280;4958;48.150;11.506;2023-04-09T06:52:13;96249.03;;;8.43;73.03
9839;BME280;4958;48.150;11.506;2023-04-09T06:54:40;96246.47;;;8.60;71.63
9839;BME280;4958;48.150;11.506;2023-04-09T06:57:07;96243.09;;;8.86;69.68
9839;BME280;4958;48.150;11.506;2023-04-09T06:59:36;96250.53;;;9.15;69.34
9839;BME280;4958;48.150;11.506;2023-04-09T07:02:02;96245.06;;;9.44;67.68
9839;BME280;4958;48.150;11.506;2023-04-09T07:04:47;96247.00;;;9.76;70.76
9839;BME280;4958;48.150;11.506;2023-04-09T07:07:20;96244.38;;;9.67;63.41
9839;BME280;4958;48.150;11.506;2023-04-09T07:09:57;96243.66;;;9.83;63.75
9839;BME280;4958;48.150;11.506;2023-04-09T07:12:26;96249.47;;;9.93;63.21
9839;BME280;4958;48.150;11.506;2023-04-09T07:14:56;96249.81;;;9.98;60.75
9839;BME280;4958;48.150;11.506;2023-04-09T07:17:22;96248.63;;;9.85;60.39
9839;BME280;4958;48.150;11.506;2023-04-09T07:19:49;96253.97;;;9.91;60.18
9839;BME280;4958;48.150;11.506;2023-04-09T07:22:16;96258.19;;;10.00;60.58
9839;BME280;4958;48.150;11.506;2023-04-09T07:24:42;96251.31;;;9.67;60.63
9839;BME280;4958;48.150;11.506;2023-04-09T07:27:10;96252.97;;;9.84;60.58
9839;BME280;4958;48.150;11.506;2023-04-09T07:29:37;96256.59;;;9.99;59.83
9839;BME280;4958;48.150;11.506;2023-04-09T07:32:03;96256.63;;;10.16;59.82
9839;BME280;4958;48.150;11.506;2023-04-09T07:34:30;96258.19;;;10.00;58.96
9839;BME280;4958;48.150;11.506;2023-04-09T07:36:56;96257.19;;;9.93;57.13
9839;BME280;4958;48.150;11.506;2023-04-09T07:39:22;96257.56;;;10.07;57.16
9839;BME280;4958;48.150;11.506;2023-04-09T07:41:49;96253.16;;;10.49;58.65
9839;BME280;4958;48.150;11.506;2023-04-09T07:44:16;96249.97;;;10.80;56.60
9839;BME280;4958;48.150;11.506;2023-04-09T07:46:43;96252.34;;;10.97;55.29
9839;BME280;4958;48.150;11.506;2023-04-09T07:49:09;96243.66;;;10.98;55.09
9839;BME280;4958;48.150;11.506;2023-04-09T07:51:36;96241.53;;;11.18;54.73
9839;BME280;4958;48.150;11.506;2023-04-09T07:54:02;96236.56;;;11.17;53.79
9839;BME280;4958;48.150;11.506;2023-04-09T07:56:29;96233.34;;;11.23;52.29
9839;BME280;4958;48.150;11.506;2023-04-09T07:58:55;96236.22;;;11.28;51.86
9839;BME280;4958;48.150;11.506;2023-04-09T08:01:23;96249.41;;;11.41;52.15
9839;BME280;4958;48.150;11.506;2023-04-09T08:03:50;96236.34;;;11.42;51.34
9839;BME280;4958;48.150;11.506;2023-04-09T08:06:17;96247.56;;;11.66;50.63
9839;BME280;4958;48.150;11.506;2023-04-09T08:08:43;96246.69;;;11.90;50.68
9839;BME280;4958;48.150;11.506;2023-04-09T08:11:09;96242.44;;;12.05;49.88
9839;BME280;4958;48.150;11.506;2023-04-09T08:13:36;96237.97;;;12.22;49.06
9839;BME280;4958;48.150;11.506;2023-04-09T08:16:03;96244.34;;;12.11;49.45
9839;BME280;4958;48.150;11.506;2023-04-09T08:18:30;96239.75;;;12.21;48.48
9839;BME280;4958;48.150;11.506;2023-04-09T08:20:57;96244.44;;;12.49;48.65
9839;BME280;4958;48.150;11.506;2023-04-09T08:23:23;96244.94;;;12.67;48.08
9839;BME280;4958;48.150;11.506;2023-04-09T08:25:50;96245.69;;;12.75;48.44
9839;BME280;4958;48.150;11.506;2023-04-09T08:28:16;96248.84;;;12.86;47.31
9839;BME280;4958;48.150;11.506;2023-04-09T08:30:42;96253.13;;;12.93;47.16
9839;BME280;4958;48.150;11.506;2023-04-09T08:33:09;96254.13;;;13.30;47.32
9839;BME280;4958;48.150;11.506;2023-04-09T08:35:36;96254.97;;;13.07;46.88
9839;BME280;4958;48.150;11.506;2023-04-09T08:38:04;96264.56;;;12.53;47.16
9839;BME280;4958;48.150;11.506;2023-04-09T08:40:33;96262.69;;;11.85;48.53
9839;BME280;4958;48.150;11.506;2023-04-09T08:43:03;96256.81;;;11.99;48.66
9839;BME280;4958;48.150;11.506;2023-04-09T08:45:30;96256.28;;;12.12;48.21
9839;BME280;4958;48.150;11.506;2023-04-09T08:47:56;96254.81;;;12.40;47.80
9839;BME280;4958;48.150;11.506;2023-04-09T08:50:23;96249.19;;;12.83;48.29
9839;BME280;4958;48.150;11.506;2023-04-09T08:52:52;96255.81;;;13.37;48.35
9839;BME280;4958;48.150;11.506;2023-04-09T08:55:21;96243.13;;;13.87;46.95
9839;BME280;4958;48.150;11.506;2023-04-09T08:57:47;96248.50;;;14.00;44.92
9839;BME280;4958;48.150;11.506;2023-04-09T09:00:14;96252.88;;;13.26;46.23
9839;BME280;4958;48.150;11.506;2023-04-09T09:03:04;96251.97;;;13.33;46.13
9839;BME280;4958;48.150;11.506;2023-04-09T09:05:37;96250.81;;;13.95;46.13
9839;BME280;4958;48.150;11.506;2023-04-09T09:08:06;96252.81;;;13.63;45.96
9839;BME280;4958;48.150;11.506;2023-04-09T09:10:37;96260.81;;;13.68;46.07
9839;BME280;4958;48.150;11.506;2023-04-09T09:13:15;96256.59;;;14.11;45.00
9839;BME280;4958;48.150;11.506;2023-04-09T09:15:42;96254.31;;;13.58;45.32
9839;BME280;4958;48.150;11.506;2023-04-09T09:18:08;96257.50;;;12.93;46.12
9839;BME280;4958;48.150;11.506;2023-04-09T09:20:35;96265.06;;;12.71;46.79
9839;BME280;4958;48.150;11.506;2023-04-09T09:23:02;96262.69;;;12.47;47.07
9839;BME280;4958;48.150;11.506;2023-04-09T09:25:31;96258.22;;;12.33;47.59
9839;BME280;4958;48.150;11.506;2023-04-09T09:28:06;96261.38;;;12.20;48.17
9839;BME280;4958;48.150;11.506;2023-04-09T09:30:33;96268.56;;;12.33;47.52
9839;BME280;4958;48.150;11.506;2023-04-09T09:33:04;96266.22;;;12.23;47.95
9839;BME280;4958;48.150;11.506;2023-04-09T09:35:45;96266.25;;;11.76;48.74
9839;BME280;4958;48.150;11.506;2023-04-09T09:38:13;96262.50;;;11.31;49.56
9839;BME280;4958;48.150;11.506;2023-04-09T09:40:41;96259.91;;;11.23;50.11
9839;BME280;4958;48.150;11.506;2023-04-09T09:43:08;96262.97;;;11.35;49.70
9839;BME280;4958;48.150;11.506;2023-04-09T09:45:35;96267.88;;;11.69;50.32
9839;BME280;4958;48.150;11.506;2023-04-09T09:48:03;96263.69;;;11.60;50.04
9839;BME280;4958;48.150;11.506;2023-04-09T09:50:30;96265.84;;;11.48;50.01
9839;BME280;4958;48.150;11.506;2023-04-09T09:53:00;96257.47;;;11.38;50.81
9839;BME280;4958;48.150;11.506;2023-04-09T09:55:30;96256.66;;;11.46;50.83
9839;BME280;4958;48.150;11.506;2023-04-09T09:58:00;96255.56;;;11.24;50.71
9839;BME280;4958;48.150;11.506;2023-04-09T10:00:30;96263.53;;;11.61;50.63
9839;BME280;4958;48.150;11.506;2023-04-09T10:02:58;96260.03;;;12.01;49.53
9839;BME280;4958;48.150;11.506;2023-04-09T10:05:28;96254.28;;;11.83;49.23
9839;BME280;4958;48.150;11.506;2023-04-09T10:07:56;96264.47;;;11.76;49.69
9839;BME280;4958;48.150;11.506;2023-04-09T10:10:23;96258.03;;;11.72;48.77
9839;BME280;4958;48.150;11.506;2023-04-09T10:12:51;96262.69;;;11.85;49.68
9839;BME280;4958;48.150;11.506;2023-04-09T10:15:19;96263.09;;;11.97;49.55
9839;BME280;4958;48.150;11.506;2023-04-09T10:17:46;96271.91;;;11.71;49.52
9839;BME280;4958;48.150;11.506;2023-04-09T10:20:17;96264.16;;;11.63;50.37
9839;BME280;4958;48.150;11.506;2023-04-09T10:22:47;96259.06;;;12.02;50.29
9839;BME280;4958;48.150;11.506;2023-04-09T10:25:16;96261.50;;;12.27;50.38
9839;BME280;4958;48.150;11.506;2023-04-09T10:27:42;96257.69;;;12.45;49.14
9839;BME280;4958;48.150;11.506;2023-04-09T10:30:31;96263.56;;;13.00;49.69
9839;BME280;4958;48.150;11.506;2023-04-09T10:33:10;96256.03;;;13.13;47.92
9839;BME280;4958;48.150;11.506;2023-04-09T10:35:39;96263.03;;;12.44;48.28
9839;BME280;4958;48.150;11.506;2023-04-09T10:38:06;96260.66;;;12.34;49.16
9839;BME280;4958;48.150;11.506;2023-04-09T10:40:33;96262.03;;;12.14;48.89
9839;BME280;4958;48.150;11.506;2023-04-09T10:43:01;96262.50;;;12.26;49.63
9839;BME280;4958;48.150;11.506;2023-04-09T10:45:39;96260.03;;;12.55;49.67
9839;BME280;4958;48.150;11.506;2023-04-09T10:48:10;96258.47;;;12.23;49.36
9839;BME280;4958;48.150;11.506;2023-04-09T10:50:38;96255.44;;;12.42;50.10
9839;BME280;4958;48.150;11.506;2023-04-09T10:53:34;96249.41;;;12.73;49.76
9839;BME280;4958;48.150;11.506;2023-04-09T10:56:13;96252.78;;;12.96;48.97
9839;BME280;4958;48.150;11.506;2023-04-09T10:58:40;96261.31;;;12.59;48.87
9839;BME280;4958;48.150;11.506;2023-04-09T11:01:08;96249.47;;;12.42;49.47
9839;BME280;4958;48.150;11.506;2023-04-09T11:03:43;96256.09;;;12.67;49.25
9839;BME280;4958;48.150;11.506;2023-04-09T11:06:10;96259.09;;;12.94;48.58
9839;BME280;4958;48.150;11.506;2023-04-09T11:08:43;96256.50;;;13.17;48.74
9839;BME280;4958;48.150;11.506;2023-04-09T11:11:09;96257.69;;;13.29;47.95
9839;BME280;4958;48.150;11.506;2023-04-09T11:13:36;96256.34;;;13.33;46.59
9839;BME280;4958;48.150;11.506;2023-04-09T11:16:03;96249.06;;;13.66;46.67
9839;BME280;4958;48.150;11.506;2023-04-09T11:18:34;96243.06;;;13.80;44.48
9839;BME280;4958;48.150;11.506;2023-04-09T11:21:04;96240.75;;;13.85;45.11
9839;BME280;4958;48.150;11.506;2023-04-09T11:23:31;96241.25;;;13.95;44.39
9839;BME280;4958;48.150;11.506;2023-04-09T11:25:58;96243.13;;;14.37;44.84
9839;BME280;4958;48.150;11.506;2023-04-09T11:28:26;96246.69;;;14.72;43.15
9839;BME280;4958;48.150;11.506;2023-04-09T11:30:55;96245.28;;;14.70;42.73
9839;BME280;4958;48.150;11.506;2023-04-09T11:33:22;96239.91;;;14.50;42.94
9839;BME280;4958;48.150;11.506;2023-04-09T11:35:51;96244.88;;;14.15;43.14
9839;BME280;4958;48.150;11.506;2023-04-09T11:38:17;96237.91;;;13.65;42.79
9839;BME280;4958;48.150;11.506;2023-04-09T11:40:44;96241.41;;;13.05;44.48
9839;BME280;4958;48.150;11.506;2023-04-09T11:43:13;96246.31;;;12.77;44.80
9839;BME280;4958;48.150;11.506;2023-04-09T11:45:41;96252.00;;;12.73;45.48
9839;BME280;4958;48.150;11.506;2023-04-09T11:48:08;96239.81;;;12.59;44.63
9839;BME280;4958;48.150;11.506;2023-04-09T11:50:35;96241.09;;;12.63;45.38
9839;BME280;4958;48.150;11.506;2023-04-09T11:53:16;96250.38;;;12.72;45.21
9839;BME280;4958;48.150;11.506;2023-04-09T11:55:46;96254.78;;;12.49;45.31
9839;BME280;4958;48.150;11.506;2023-04-09T11:58:13;96259.75;;;12.27;45.61
9839;BME280;4958;48.150;11.506;2023-04-09T12:00:40;96260.06;;;12.24;46.27
9839;BME280;4958;48.150;11.506;2023-04-09T12:03:09;96259.00;;;12.41;46.36
9839;BME280;4958;48.150;11.506;2023-04-09T12:05:35;96262.34;;;12.50;46.47
9839;BME280;4958;48.150;11.506;2023-04-09T12:08:04;96269.09;;;12.51;46.37
9839;BME280;4958;48.150;11.506;2023-04-09T12:10:34;96268.50;;;12.49;46.90
9839;BME280;4958;48.150;11.506;2023-04-09T12:13:03;96265.97;;;12.33;46.66
9839;BME280;4958;48.150;11.506;2023-04-09T12:15:32;96268.84;;;12.38;47.59
9839;BME280;4958;48.150;11.506;2023-04-09T12:17:59;96266.25;;;12.46;47.75
9839;BME280;4958;48.150;11.506;2023-04-09T12:20:29;96265.03;;;12.03;47.83
9839;BME280;4958;48.150;11.506;2023-04-09T12:22:57;96263.97;;;11.81;48.46
9839;BME280;4958;48.150;11.506;2023-04-09T12:25:29;96268.69;;;11.61;48.64
9839;BME280;4958;48.150;11.506;2023-04-09T12:28:00;96269.53;;;11.54;48.42
9839;BME280;4958;48.150;11.506;2023-04-09T12:30:27;96263.69;;;11.60;48.55
9839;BME280;4958;48.150;11.506;2023-04-09T12:32:54;96258.75;;;11.97;48.18
9839;BME280;4958;48.150;11.506;2023-04-09T12:35:21;96266.69;;;12.72;47.99
9839;BME280;4958;48.150;11.506;2023-04-09T12:37:48;96260.72;;;13.47;47.26
9839;BME280;4958;48.150;11.506;2023-04-09T12:40:15;96251.28;;;13.83;45.54
9839;BME280;4958;48.150;11.506;2023-04-09T12:42:42;96250.31;;;13.85;43.90
9839;BME280;4958;48.150;11.506;2023-04-09T12:45:12;96251.63;;;13.80;43.72
9839;BME280;4958;48.150;11.506;2023-04-09T12:47:39;96249.84;;;13.96;45.23
9839;BME280;4958;48.150;11.506;2023-04-09T12:50:07;96248.06;;;14.32;44.93
9839;BME280;4958;48.150;11.506;2023-04-09T12:52:34;96253.69;;;14.36;44.55
9839;BME280;4958;48.150;11.506;2023-04-09T12:55:01;96245.81;;;14.29;43.52
9839;BME280;4958;48.150;11.506;2023-04-09T12:57:28;96243.59;;;14.26;43.26
9839;BME280;4958;48.150;11.506;2023-04-09T12:59:55;96239.75;;;13.86;44.29
9839;BME280;4958;48.150;11.506;2023-04-09T13:02:23;96241.09;;;13.38;45.97
9839;BME280;4958;48.150;11.506;2023-04-09T13:04:50;96239.56;;;13.29;46.60
9839;BME280;4958;48.150;11.506;2023-04-09T13:07:17;96237.09;;;13.35;46.42
9839;BME280;4958;48.150;11.506;2023-04-09T13:09:44;96239.31;;;13.24;46.26
9839;BME280;4958;48.150;11.506;2023-04-09T13:12:12;96241.03;;;13.08;46.41
9839;BME280;4958;48.150;11.506;2023-04-09T13:14:39;96239.84;;;13.19;47.22
9839;BME280;4958;48.150;11.506;2023-04-09T13:17:06;96238.91;;;13.12;46.95
9839;BME280;4958;48.150;11.506;2023-04-09T13:19:36;96240.59;;;13.05;47.55
9839;BME280;4958;48.150;11.506;2023-04-09T13:22:02;96240.94;;;13.02;48.16
9839;BME280;4958;48.150;11.506;2023-04-09T13:24:32;96249.03;;;12.99;48.33